createdAt,value
2022-09-30T00:00:04.096Z,11.50
2022-09-30T00:02:56.337Z,11.50
2022-09-30T00:06:08.441Z,11.50
2022-09-30T00:09:26.955Z,11.50
2022-09-30T00:12:09.575Z,11.40
2022-09-30T00:15:28.346Z,11.40
2022-09-30T00:18:26.357Z,11.40
2022-09-30T00:20:57.407Z,11.40
2022-09-30T00:24:44.079Z,11.40
2022-09-30T00:27:46.120Z,11.40
2022-09-30T00:30:14.391Z,11.40
2022-09-30T00:32:46.052Z,11.30
2022-09-30T00:35:22.650Z,11.30
2022-09-30T00:37:50.818Z,11.30
2022-09-30T00:40:21.090Z,11.30
2022-09-30T00:42:50.285Z,11.30
2022-09-30T00:45:23.690Z,11.30
2022-09-30T00:48:00.583Z,11.20
2022-09-30T00:50:47.225Z,11.20
2022-09-30T00:53:26.456Z,11.20
2022-09-30T00:56:35.591Z,11.20
2022-09-30T00:59:48.829Z,11.20
2022-09-30T01:02:30.718Z,11.10
2022-09-30T01:05:04.031Z,11.10
2022-09-30T01:07:42.308Z,11.10
2022-09-30T01:10:34.341Z,11.10
2022-09-30T01:13:07.798Z,11.10
2022-09-30T01:15:59.476Z,11.00
2022-09-30T01:18:39.721Z,11.00
2022-09-30T01:21:45.244Z,11.00
2022-09-30T01:24:50.374Z,11.00
2022-09-30T01:28:03.688Z,11.00
2022-09-30T01:30:59.460Z,11.00
2022-09-30T01:33:43.266Z,11.00
2022-09-30T01:36:37.387Z,10.90
2022-09-30T01:39:18.127Z,10.90
2022-09-30T01:41:59.105Z,10.90
2022-09-30T01:44:36.129Z,10.90
2022-09-30T01:47:13.246Z,10.90
2022-09-30T01:49:53.350Z,10.90
2022-09-30T01:52:30.488Z,10.80
2022-09-30T01:55:08.104Z,10.80
2022-09-30T01:57:47.146Z,10.80
2022-09-30T02:00:16.243Z,10.80
2022-09-30T02:02:55.813Z,10.80
2022-09-30T02:05:34.649Z,10.80
2022-09-30T02:08:25.507Z,10.80
2022-09-30T02:10:59.307Z,10.70
2022-09-30T02:13:37.268Z,10.70
2022-09-30T02:16:18.205Z,10.70
2022-09-30T02:18:53.396Z,10.70
2022-09-30T02:22:14.588Z,10.70
2022-09-30T02:24:51.389Z,10.70
2022-09-30T02:27:27.590Z,10.70
2022-09-30T02:30:09.425Z,10.70
2022-09-30T02:32:41.893Z,10.60
2022-09-30T02:35:16.103Z,10.70
2022-09-30T02:37:53.721Z,10.60
2022-09-30T02:40:40.865Z,10.60
2022-09-30T02:43:30.747Z,10.60
2022-09-30T02:46:13.262Z,10.60
2022-09-30T02:48:50.642Z,10.60
2022-09-30T02:51:43.673Z,10.60
2022-09-30T02:54:19.820Z,10.60
2022-09-30T02:56:59.007Z,10.60
2022-09-30T02:59:45.676Z,10.60
2022-09-30T03:02:13.600Z,10.50
2022-09-30T03:04:55.693Z,10.60
2022-09-30T03:07:40.818Z,10.50
2022-09-30T03:10:21.250Z,10.50
2022-09-30T03:17:39.708Z,10.50
2022-09-30T03:24:22.408Z,10.50
2022-09-30T03:27:04.301Z,10.50
2022-09-30T03:29:49.298Z,10.40
2022-09-30T03:32:35.140Z,10.40
2022-09-30T03:35:18.732Z,10.40
2022-09-30T03:37:58.002Z,10.40
2022-09-30T03:40:40.404Z,10.40
2022-09-30T03:43:25.175Z,10.40
2022-09-30T03:46:01.167Z,10.40
2022-09-30T03:48:38.979Z,10.40
2022-09-30T03:51:19.259Z,10.40
2022-09-30T03:53:54.071Z,10.30
2022-09-30T03:56:31.732Z,10.30
2022-09-30T03:59:01.799Z,10.30
2022-09-30T04:01:30.316Z,10.30
2022-09-30T04:04:01.235Z,10.30
2022-09-30T04:06:32.423Z,10.30
2022-09-30T04:09:06.508Z,10.30
2022-09-30T04:11:39.818Z,10.30
2022-09-30T04:14:10.874Z,10.20
2022-09-30T04:16:39.160Z,10.30
2022-09-30T04:19:13.812Z,10.30
2022-09-30T04:21:49.505Z,10.20
2022-09-30T04:24:26.506Z,10.20
2022-09-30T04:27:02.198Z,10.20
2022-09-30T04:29:29.992Z,10.20
2022-09-30T04:32:01.324Z,10.20
2022-09-30T04:34:31.191Z,10.20
2022-09-30T04:37:01.672Z,10.20
2022-09-30T04:39:32.349Z,10.10
2022-09-30T04:42:18.240Z,10.10
2022-09-30T04:44:46.133Z,10.10
2022-09-30T04:47:16.788Z,10.10
2022-09-30T04:49:44.610Z,10.10
2022-09-30T04:52:14.881Z,10.10
2022-09-30T04:54:47.085Z,10.10
2022-09-30T04:57:16.306Z,10.10
2022-09-30T04:59:45.742Z,10.10
2022-09-30T05:02:18.470Z,10.00
2022-09-30T05:05:22.026Z,10.00
2022-09-30T05:07:52.133Z,10.00
2022-09-30T05:10:27.903Z,10.00
2022-09-30T05:12:58.394Z,10.00
2022-09-30T05:15:28.317Z,10.00
2022-09-30T05:17:56.178Z,9.90
2022-09-30T05:20:24.802Z,9.90
2022-09-30T05:22:56.971Z,9.90
2022-09-30T05:25:27.683Z,9.90
2022-09-30T05:27:56.891Z,9.90
2022-09-30T05:30:24.695Z,9.80
2022-09-30T05:32:53.973Z,9.80
2022-09-30T05:35:26.200Z,9.80
2022-09-30T05:37:57.183Z,9.80
2022-09-30T05:40:28.223Z,9.80
2022-09-30T05:43:02.045Z,9.80
2022-09-30T05:45:34.146Z,9.80
2022-09-30T05:48:09.350Z,9.70
2022-09-30T05:50:40.186Z,9.80
2022-09-30T05:53:11.246Z,9.70
2022-09-30T05:55:39.480Z,9.70
2022-09-30T05:58:08.633Z,9.70
2022-09-30T06:00:46.979Z,9.70
2022-09-30T06:03:24.094Z,9.70
2022-09-30T06:06:10.509Z,9.60
2022-09-30T06:08:38.603Z,9.60
2022-09-30T06:11:25.107Z,9.60
2022-09-30T06:13:57.369Z,9.60
2022-09-30T06:16:25.743Z,9.60
2022-09-30T06:18:56.037Z,9.60
2022-09-30T06:21:25.516Z,9.60
2022-09-30T06:23:53.470Z,9.60
2022-09-30T06:26:21.564Z,9.60
2022-09-30T06:28:52.559Z,9.60
2022-09-30T06:31:21.807Z,9.60
2022-09-30T06:33:53.030Z,9.60
2022-09-30T06:36:23.519Z,9.60
2022-09-30T06:38:54.548Z,9.60
2022-09-30T06:41:27.382Z,9.60
2022-09-30T06:44:05.035Z,9.60
2022-09-30T06:46:53.290Z,9.60
2022-09-30T06:49:44.185Z,9.70
2022-09-30T06:52:22.513Z,9.70
2022-09-30T06:54:55.182Z,9.70
2022-09-30T06:57:27.107Z,9.70
2022-09-30T06:59:59.556Z,9.70
2022-09-30T07:02:38.803Z,9.70
2022-09-30T07:05:23.662Z,9.70
2022-09-30T07:07:54.142Z,9.70
2022-09-30T07:10:25.817Z,9.80
2022-09-30T07:12:54.319Z,9.80
2022-09-30T07:15:24.718Z,9.80
2022-09-30T07:18:01.585Z,9.80
2022-09-30T07:20:30.395Z,9.80
2022-09-30T07:23:15.588Z,9.80
2022-09-30T07:25:51.607Z,9.80
2022-09-30T07:28:36.126Z,9.80
2022-09-30T07:31:32.040Z,9.80
2022-09-30T07:34:13.985Z,9.80
2022-09-30T07:36:49.399Z,9.80
2022-09-30T07:39:20.338Z,9.80
2022-09-30T07:41:50.068Z,9.80
2022-09-30T07:44:31.262Z,9.90
2022-09-30T07:47:09.332Z,9.90
2022-09-30T07:49:55.893Z,9.90
2022-09-30T07:54:01.808Z,9.90
2022-09-30T07:56:07.100Z,9.90
2022-09-30T07:58:35.320Z,9.90
2022-09-30T08:01:11.442Z,9.90
2022-09-30T08:03:45.968Z,9.90
2022-09-30T08:06:25.682Z,10.00
2022-09-30T08:08:57.920Z,10.00
2022-09-30T08:11:55.358Z,10.00
2022-09-30T08:14:25.451Z,10.00
2022-09-30T08:16:59.907Z,10.00
2022-09-30T08:19:30.845Z,10.00
2022-09-30T08:22:12.628Z,10.00
2022-09-30T08:24:51.516Z,10.10
2022-09-30T08:27:21.393Z,10.10
2022-09-30T08:30:04.623Z,10.10
2022-09-30T08:32:43.155Z,10.10
2022-09-30T08:35:10.956Z,10.10
2022-09-30T08:37:41.310Z,10.10
2022-09-30T09:03:29.881Z,10.30
2022-09-30T09:07:05.191Z,10.40
2022-09-30T09:10:31.553Z,10.40
2022-09-30T09:14:00.554Z,10.50
2022-09-30T09:20:48.058Z,10.50
2022-09-30T09:24:12.608Z,10.60
2022-09-30T09:34:17.963Z,10.70
2022-09-30T09:47:32.209Z,10.90
2022-09-30T09:50:52.360Z,11.00
2022-09-30T09:56:55.174Z,11.10
2022-09-30T10:16:02.779Z,11.50
2022-09-30T10:19:15.184Z,11.50
2022-09-30T10:22:19.712Z,11.60
2022-09-30T10:32:04.288Z,11.80
2022-09-30T10:34:37.413Z,11.80
2022-09-30T10:40:39.265Z,11.90
2022-09-30T10:44:01.268Z,12.00
2022-09-30T10:47:05.944Z,12.00
2022-09-30T10:49:41.449Z,12.00
2022-09-30T10:52:19.122Z,12.10
2022-09-30T10:54:53.803Z,12.10
2022-09-30T11:27:45.040Z,12.80
2022-09-30T11:30:32.128Z,12.90
2022-09-30T11:33:11.185Z,12.90
2022-09-30T11:35:50.881Z,13.00
2022-09-30T11:38:41.091Z,13.00
2022-09-30T11:41:14.674Z,13.10
2022-09-30T11:43:53.641Z,13.20
2022-09-30T11:46:39.351Z,13.30
2022-09-30T11:49:21.266Z,13.30
2022-09-30T11:51:58.893Z,13.50
2022-09-30T12:24:45.767Z,14.20
2022-09-30T12:27:18.719Z,14.20
2022-09-30T12:30:11.670Z,14.40
2022-09-30T12:33:19.604Z,14.40
2022-09-30T12:36:16.404Z,14.40
2022-09-30T12:39:09.171Z,14.50
2022-09-30T12:41:51.006Z,14.50
2022-09-30T12:44:49.173Z,14.60
2022-09-30T12:47:33.988Z,14.70
2022-09-30T12:50:06.940Z,14.70
2022-09-30T12:52:38.285Z,14.70
2022-09-30T12:55:10.008Z,14.70
2022-09-30T12:57:42.490Z,14.80
2022-09-30T13:00:17.199Z,14.80
2022-09-30T13:02:48.182Z,14.80
2022-09-30T13:05:53.279Z,14.80
2022-09-30T13:08:43.714Z,14.80
2022-09-30T13:11:37.218Z,14.80
2022-09-30T13:14:22.339Z,14.80
2022-09-30T13:17:01.892Z,14.80
2022-09-30T13:19:36.293Z,14.80
2022-09-30T13:22:52.764Z,14.80
2022-09-30T13:25:20.772Z,14.90
2022-09-30T13:27:51.780Z,14.90
2022-09-30T13:30:40.120Z,14.90
2022-09-30T13:33:30.663Z,14.90
2022-09-30T13:36:08.318Z,14.90
2022-09-30T13:38:39.166Z,14.90
2022-09-30T13:41:16.112Z,15.00
2022-09-30T13:43:46.323Z,15.00
2022-09-30T13:46:25.562Z,15.00
2022-09-30T13:48:58.554Z,15.10
2022-09-30T13:51:29.347Z,15.10
2022-09-30T13:54:00.562Z,15.20
2022-09-30T13:56:29.958Z,15.20
2022-09-30T13:59:27.327Z,15.20
2022-09-30T14:02:36.636Z,15.20
2022-09-30T14:05:25.413Z,15.30
2022-09-30T14:08:12.285Z,15.20
2022-09-30T14:10:56.979Z,15.40
2022-09-30T14:13:38.438Z,15.40
2022-09-30T14:16:27.579Z,15.50
2022-09-30T14:19:16.669Z,15.70
2022-09-30T14:21:48.244Z,15.80
2022-09-30T14:24:22.488Z,15.90
2022-09-30T14:27:15.709Z,16.00
2022-09-30T14:29:52.542Z,16.00
2022-09-30T14:32:26.541Z,16.00
2022-09-30T14:35:00.311Z,16.00
2022-09-30T14:37:30.887Z,16.00
2022-09-30T14:39:59.371Z,16.10
2022-09-30T14:42:31.808Z,16.10
2022-09-30T14:45:04.535Z,16.10
2022-09-30T14:47:34.856Z,16.20
2022-09-30T14:50:04.479Z,16.20
2022-09-30T14:52:42.795Z,16.30
2022-09-30T14:55:30.391Z,16.30
2022-09-30T14:58:22.458Z,16.30
2022-09-30T15:00:58.460Z,16.30
2022-09-30T15:03:26.970Z,16.30
2022-09-30T15:05:56.914Z,16.30
2022-09-30T15:08:25.311Z,16.30
2022-09-30T15:10:54.823Z,16.30
2022-09-30T15:13:25.426Z,16.30
2022-09-30T15:15:53.351Z,16.20
2022-09-30T15:18:26.458Z,16.20
2022-09-30T15:20:58.884Z,16.10
2022-09-30T15:23:29.950Z,16.10
2022-09-30T15:25:58.698Z,16.10
2022-09-30T15:28:26.819Z,16.10
2022-09-30T15:30:57.853Z,16.10
2022-09-30T15:33:28.981Z,16.10
2022-09-30T15:36:08.165Z,16.00
2022-09-30T15:38:38.336Z,16.00
2022-09-30T15:41:12.782Z,16.00
2022-09-30T15:43:43.284Z,16.00
2022-09-30T15:46:28.121Z,16.00
2022-09-30T15:48:58.523Z,16.00
2022-09-30T15:51:31.136Z,16.00
2022-09-30T15:54:00.465Z,16.00
2022-09-30T15:56:35.531Z,16.00
2022-09-30T15:59:06.224Z,15.90
2022-09-30T16:01:37.088Z,15.90
2022-09-30T16:04:15.159Z,15.90
2022-09-30T16:06:50.593Z,15.90
2022-09-30T16:09:26.411Z,15.90
2022-09-30T16:12:05.183Z,15.90
2022-09-30T16:14:37.445Z,15.90
2022-09-30T16:17:06.471Z,15.90
2022-09-30T16:19:34.948Z,15.80
2022-09-30T16:22:04.127Z,15.80
2022-09-30T16:24:49.259Z,15.80
2022-09-30T16:27:29.054Z,15.80
2022-09-30T16:29:57.787Z,15.80
2022-09-30T16:32:27.002Z,15.70
2022-09-30T16:34:55.020Z,15.70
2022-09-30T16:37:24.355Z,15.70
2022-09-30T16:39:52.195Z,15.70
2022-09-30T16:42:20.463Z,15.60
2022-09-30T16:44:48.297Z,15.60
2022-09-30T16:47:17.662Z,15.60
2022-09-30T16:49:47.322Z,15.60
2022-09-30T16:52:15.792Z,15.50
2022-09-30T16:54:45.102Z,15.50
2022-09-30T16:57:15.085Z,15.40
2022-09-30T16:59:43.128Z,15.40
2022-09-30T17:02:15.749Z,15.30
2022-09-30T17:04:45.260Z,15.30
2022-09-30T17:07:14.845Z,15.20
2022-09-30T17:09:46.947Z,15.20
2022-09-30T17:12:14.875Z,15.10
2022-09-30T17:14:43.708Z,15.00
2022-09-30T17:17:13.688Z,15.00
2022-09-30T17:19:42.003Z,14.90
2022-09-30T17:22:09.763Z,14.90
2022-09-30T17:24:37.580Z,14.80
2022-09-30T17:27:07.856Z,14.80
2022-09-30T17:29:41.787Z,14.70
2022-09-30T17:32:10.259Z,14.60
2022-09-30T17:34:38.013Z,14.60
2022-09-30T17:39:39.107Z,14.50
2022-09-30T17:42:29.275Z,14.50
2022-09-30T17:44:57.371Z,14.40
2022-09-30T17:47:26.735Z,14.40
2022-09-30T17:49:54.917Z,14.30
2022-09-30T17:52:23.751Z,14.30
2022-09-30T17:54:52.646Z,14.30
2022-09-30T17:57:22.219Z,14.20
2022-09-30T17:59:50.098Z,14.20
2022-09-30T18:02:18.320Z,14.20
2022-09-30T18:04:46.352Z,14.10
2022-09-30T18:07:14.335Z,14.10
2022-09-30T18:09:42.238Z,14.00
2022-09-30T18:12:10.017Z,14.00
2022-09-30T18:14:39.343Z,14.00
2022-09-30T18:17:07.700Z,13.90
2022-09-30T18:19:36.116Z,13.90
2022-09-30T18:22:04.327Z,13.80
2022-09-30T18:24:49.765Z,13.80
2022-09-30T18:27:17.610Z,13.80
2022-09-30T18:29:46.855Z,13.80
2022-09-30T18:32:17.367Z,13.70
2022-09-30T18:34:45.193Z,13.70
2022-09-30T18:37:13.009Z,13.70
2022-09-30T18:39:41.014Z,13.60
2022-09-30T18:42:09.283Z,13.60
2022-09-30T18:44:38.092Z,13.60
2022-09-30T18:47:07.593Z,13.50
2022-09-30T18:49:35.451Z,13.50
2022-09-30T18:52:04.572Z,13.40
2022-09-30T18:54:33.614Z,13.40
2022-09-30T18:57:01.435Z,13.40
2022-09-30T18:59:30.705Z,13.40
2022-09-30T19:02:00.296Z,13.30
2022-09-30T19:04:29.567Z,13.30
2022-09-30T19:06:57.408Z,13.20
2022-09-30T19:09:26.565Z,13.20
2022-09-30T19:11:55.519Z,13.20
2022-09-30T19:14:24.087Z,13.10
2022-09-30T19:16:52.219Z,13.10
2022-09-30T19:19:23.118Z,13.10
2022-09-30T19:21:52.188Z,13.00
2022-09-30T19:24:24.051Z,13.00
2022-09-30T19:26:54.541Z,13.00
2022-09-30T19:29:23.494Z,13.00
2022-09-30T19:31:51.615Z,12.90
2022-09-30T19:34:30.327Z,12.90
2022-09-30T19:37:01.428Z,12.90
2022-09-30T19:39:41.508Z,12.80
2022-09-30T19:42:18.309Z,12.80
2022-09-30T19:44:46.127Z,12.80
2022-09-30T19:47:13.906Z,12.70
2022-09-30T19:49:42.010Z,12.70
2022-09-30T19:52:19.124Z,12.70
2022-09-30T19:54:50.721Z,12.60
2022-09-30T19:57:18.656Z,12.60
2022-09-30T19:59:46.556Z,12.50
2022-09-30T20:02:14.474Z,12.60
2022-09-30T20:04:43.764Z,12.50
2022-09-30T20:07:15.014Z,12.40
2022-09-30T20:09:43.301Z,12.40
2022-09-30T20:12:11.703Z,12.40
2022-09-30T20:14:56.750Z,12.30
2022-09-30T20:17:24.563Z,12.30
2022-09-30T20:20:06.380Z,12.30
2022-09-30T20:22:35.485Z,12.30
2022-09-30T20:25:03.407Z,12.20
2022-09-30T20:27:32.854Z,12.20
2022-09-30T20:30:00.807Z,12.20
2022-09-30T20:32:30.706Z,12.20
2022-09-30T20:34:58.897Z,12.10
2022-09-30T20:37:26.688Z,12.10
2022-09-30T20:39:55.824Z,12.00
2022-09-30T20:42:25.522Z,12.00
2022-09-30T20:44:53.363Z,12.00
2022-09-30T20:47:21.190Z,11.90
2022-09-30T20:49:49.015Z,11.90
2022-09-30T20:52:16.782Z,11.90
2022-09-30T20:54:44.578Z,11.90
2022-09-30T20:57:13.735Z,11.90
2022-09-30T20:59:41.645Z,11.80
2022-09-30T21:02:10.836Z,11.90
2022-09-30T21:04:38.743Z,11.80
2022-09-30T21:07:07.551Z,11.70
2022-09-30T21:09:35.586Z,11.70
2022-09-30T21:12:03.666Z,11.70
2022-09-30T21:14:32.841Z,11.70
2022-09-30T21:17:00.637Z,11.70
2022-09-30T21:19:29.655Z,11.60
2022-09-30T21:21:57.459Z,11.60
2022-09-30T21:24:25.924Z,11.60
2022-09-30T21:26:54.337Z,11.50
2022-09-30T21:29:23.676Z,11.50
2022-09-30T21:31:52.807Z,11.50
2022-09-30T21:34:20.659Z,11.40
2022-09-30T21:36:49.169Z,11.40
2022-09-30T21:39:16.888Z,11.40
2022-09-30T21:41:44.754Z,11.40
2022-09-30T21:44:13.847Z,11.30
2022-09-30T21:46:43.660Z,11.30
2022-09-30T21:49:19.122Z,11.30
2022-09-30T21:51:47.374Z,11.30
2022-09-30T21:54:15.330Z,11.20
2022-09-30T21:56:44.255Z,11.20
2022-09-30T21:59:12.869Z,11.10
2022-09-30T22:01:41.503Z,11.10
2022-09-30T22:04:09.906Z,11.10
2022-09-30T22:06:39.079Z,11.10
2022-09-30T22:09:07.012Z,11.10
2022-09-30T22:11:36.044Z,11.00
2022-09-30T22:14:04.144Z,11.00
2022-09-30T22:16:35.668Z,11.00
2022-09-30T22:19:05.407Z,11.00
2022-09-30T22:21:35.079Z,10.90
2022-09-30T22:24:06.888Z,10.90
2022-09-30T22:26:43.341Z,10.90
2022-09-30T22:29:13.002Z,10.90
2022-09-30T22:31:40.993Z,10.90
2022-09-30T22:34:31.077Z,10.90
2022-09-30T22:37:16.385Z,10.80
2022-09-30T22:39:45.556Z,10.80
2022-09-30T22:42:13.424Z,10.80
2022-09-30T22:44:41.168Z,10.80
2022-09-30T22:47:10.703Z,10.70
2022-09-30T22:49:38.624Z,10.70
2022-09-30T22:52:07.119Z,10.70
2022-09-30T22:54:36.461Z,10.70
2022-09-30T22:57:07.676Z,10.60
2022-09-30T22:59:36.222Z,10.60
2022-09-30T23:02:05.047Z,10.60
2022-09-30T23:04:33.342Z,10.60
2022-09-30T23:07:01.267Z,10.50
2022-09-30T23:09:29.725Z,10.50
2022-09-30T23:11:58.096Z,10.50
2022-09-30T23:14:27.244Z,10.50
2022-09-30T23:16:55.167Z,10.50
2022-09-30T23:19:23.216Z,10.40
2022-09-30T23:21:51.209Z,10.40
2022-09-30T23:24:19.097Z,10.40
2022-09-30T23:26:47.129Z,10.40
2022-09-30T23:29:15.786Z,10.40
2022-09-30T23:31:45.017Z,10.40
2022-09-30T23:34:13.114Z,10.30
2022-09-30T23:36:41.103Z,10.30
2022-09-30T23:39:13.447Z,10.30
2022-09-30T23:41:43.435Z,10.20
2022-09-30T23:44:11.204Z,10.20
2022-09-30T23:46:39.103Z,10.20
2022-09-30T23:49:08.251Z,10.10
2022-09-30T23:51:36.454Z,10.20
2022-09-30T23:54:04.602Z,10.10
2022-09-30T23:56:33.061Z,10.10
2022-09-30T23:59:00.901Z,10.10
